KMPO

Pocono Mountains Municipal Airport

Mount Pocono, Pennsylvania, USA
METAR KMPO 192253Z AUTO VRB03KT 10SM OVC028 19/16 A3009 RMK AO2 SLP183 T01890161
Observed Flight Rules
Aug-19 @ 22:53 UTC (16 minutes ago) Marginal Visual Flight Rules
Wind Visibility Clouds
Variable at 3 knots 10 miles
  • Overcast at 2,800' AGL
Temperatures Readings
Current 19°C / 66°F
Dewpoint 16°C / 61°F
Humidity 83%
Altimeter 30.09" Hg
Pressure 1018.3 hPa
Elevation 577
METAR KMPO 192253Z AUTO VRB03KT 10SM OVC028 19/16 A3009 RMK AO2 SLP183 T01890161
Observed Flight Rules
Aug-19 @ 22:53 UTC
(16 minutes ago)
MVFR
Wind Visibility
Variable at 3 knots 10 miles
Clouds
  • Overcast at 2,800' AGL
Temperature Dewpoint
19°C / 66°F 16°C / 61°F
Humidity Altimeter Pressure
83% 30.09" Hg 1018.3 hPa